Time;durP1;ratioP1;P1;durP2;ratioP2;P2;SDS_P1;SDS_P2;PMS_P1;PMS_P2;Temp;Humidity;BMP_temperature;BMP_pressure;BME280_temperature;BME280_humidity;BME280_pressure;Samples;Min_cycle;Max_cycle;Signal;HPM_P1;HPM_P2
2023/01/12 00:02:03;;;;;;;;;6.25;3.75;;;;;10.91;69.78;101591.84;6248817;22;45218;-81
2023/01/12 00:04:31;;;;;;;;;2.75;2.75;;;;;10.72;69.99;101543.38;6249877;22;45348;-81
2023/01/12 00:06:58;;;;;;;;;4.75;2.75;;;;;10.88;69.95;101573.34;6248661;22;45477;-80
2023/01/12 00:09:24;;;;;;;;;4.75;4.00;;;;;10.79;69.79;101582.06;6248155;22;47296;-80
2023/01/12 00:11:53;;;;;;;;;2.67;2.00;;;;;10.86;70.04;101586.53;6249019;22;45316;-80
2023/01/12 00:14:18;;;;;;;;;5.75;4.00;;;;;10.86;70.02;101575.13;6277213;22;45411;-80
2023/01/12 00:16:44;;;;;;;;;2.00;2.00;;;;;10.80;70.04;101561.03;6249247;22;45721;-82
2023/01/12 00:19:18;;;;;;;;;3.67;2.67;;;;;10.82;70.21;101542.59;6275647;22;46064;-79
2023/01/12 00:24:18;;;;;;;;;5.75;4.75;;;;;10.82;70.54;101545.22;6275186;22;45276;-79
2023/01/12 00:26:46;;;;;;;;;4.00;3.00;;;;;10.77;70.54;101539.03;6249599;22;45545;-80
2023/01/12 00:29:11;;;;;;;;;6.25;5.00;;;;;10.85;70.68;101547.00;6250229;22;47477;-81
2023/01/12 00:31:37;;;;;;;;;3.75;3.75;;;;;10.75;70.66;101525.88;6249410;22;45388;-79
2023/01/12 00:34:02;;;;;;;;;2.25;2.25;;;;;10.75;70.74;101528.50;6279595;22;45493;-80
2023/01/12 00:36:30;;;;;;;;;5.00;3.00;;;;;10.80;70.82;101539.94;6279513;22;45441;-79
2023/01/12 00:38:56;;;;;;;;;5.67;3.67;;;;;10.74;70.64;101520.56;6252059;22;47078;-80
2023/01/12 00:47:00;;;;;;;;;;;;;;;;;;;;;
2023/01/12 00:49:28;;;;;;;;;6.50;3.75;;;;;10.89;70.70;101527.72;6280088;22;75189;-80
2023/01/12 00:51:59;;;;;;;;;6.00;4.50;;;;;10.88;70.76;101505.78;6280637;22;45463;-81
2023/01/12 00:55:15;;;;;;;;;4.00;3.33;;;;;10.66;70.76;101467.84;6253150;22;45269;-80
2023/01/12 01:00:44;;;;;;;;;5.00;3.75;;;;;10.89;70.69;101491.72;6270131;22;46048;-80
2023/01/12 01:03:15;;;;;;;;;4.25;2.00;;;;;10.85;70.72;101489.91;6249269;22;45570;-79
2023/01/12 01:05:41;;;;;;;;;2.67;1.33;;;;;10.68;70.64;101465.22;6245960;22;45525;-79
2023/01/12 01:08:07;;;;;;;;;5.00;3.25;;;;;10.72;70.67;101494.25;6249630;22;45740;-79
2023/01/12 01:10:32;;;;;;;;;2.75;2.75;;;;;10.77;70.57;101500.44;6277997;22;45404;-80
2023/01/12 01:13:01;;;;;;;;;3.75;2.25;;;;;10.93;70.50;101525.13;6280254;22;45351;-78
2023/01/12 01:15:29;;;;;;;;;2.00;1.00;;;;;10.86;70.64;101502.25;6252873;22;45406;-80
2023/01/12 01:17:55;;;;;;;;;1.75;1.75;;;;;10.84;70.41;101493.44;6282046;22;45448;-78
2023/01/12 01:20:22;;;;;;;;;2.00;2.00;;;;;10.86;70.63;101494.34;6256450;22;46652;-79
2023/01/12 01:22:48;;;;;;;;;2.00;2.00;;;;;10.98;70.70;101502.31;6256831;22;45466;-79
2023/01/12 01:25:14;;;;;;;;;3.75;3.00;;;;;11.02;70.38;101503.22;6258541;22;45292;-79
2023/01/12 01:27:45;;;;;;;;;2.00;2.00;;;;;10.89;70.32;101482.94;6258972;22;45232;-79
2023/01/12 01:30:13;;;;;;;;;4.75;2.00;;;;;11.02;70.07;101508.50;6286109;22;45538;-78
2023/01/12 01:32:39;;;;;;;;;3.33;1.33;;;;;10.99;70.40;101513.75;6259382;22;45181;-79
2023/01/12 01:35:10;;;;;;;;;3.00;2.50;;;;;11.03;70.44;101508.50;6258093;22;45237;-79
2023/01/12 01:37:36;;;;;;;;;4.00;3.00;;;;;11.03;70.42;101503.22;6254531;22;45450;-79
2023/01/12 01:40:01;;;;;;;;;7.00;5.00;;;;;11.04;70.43;101509.41;6251790;22;47067;-79
2023/01/12 01:42:29;;;;;;;;;7.00;5.25;;;;;10.96;70.35;101493.53;6252638;22;45334;-78
2023/01/12 01:45:06;;;;;;;;;3.00;1.50;;;;;10.97;70.21;101482.13;6253617;22;45177;-79
2023/01/12 01:47:56;;;;;;;;;1.67;1.67;;;;;11.07;70.26;101487.47;6254652;22;45689;-79
2023/01/12 01:50:47;;;;;;;;;4.00;2.00;;;;;10.97;70.08;101457.53;6282736;22;46203;-78
2023/01/12 01:53:21;;;;;;;;;2.00;1.50;;;;;11.01;70.27;101483.91;6252397;22;45391;-78
2023/01/12 01:56:16;;;;;;;;;3.00;1.00;;;;;11.02;70.17;101487.44;6250750;22;45252;-79
2023/01/12 01:58:59;;;;;;;;;2.50;2.50;;;;;10.96;70.21;101471.56;6250980;22;45274;-79
2023/01/12 02:01:28;;;;;;;;;3.67;2.67;;;;;11.04;70.22;101481.28;6250365;22;47561;-78
2023/01/12 02:04:01;;;;;;;;;2.75;2.00;;;;;11.05;70.57;101487.44;6279156;22;45374;-79
2023/01/12 02:06:37;;;;;;;;;1.67;1.00;;;;;11.08;70.15;101491.84;6251353;22;45223;-80
2023/01/12 02:09:20;;;;;;;;;3.00;2.33;;;;;11.00;70.11;101474.22;6249865;22;45446;-78
2023/01/12 02:17:47;;;;;;;;;2.50;2.25;;;;;11.08;70.14;101468.13;6278571;22;45228;-79
2023/01/12 02:20:39;;;;;;;;;4.33;4.00;;;;;11.12;70.20;101468.16;6250891;22;45387;-79
2023/01/12 02:23:27;;;;;;;;;4.00;1.75;;;;;11.14;70.19;101468.16;6250510;22;47511;-78
2023/01/12 02:25:55;;;;;;;;;3.00;2.00;;;;;11.15;70.44;101470.81;6250701;22;45403;-79
2023/01/12 02:28:53;;;;;;;;;2.00;1.67;;;;;11.18;70.30;101477.84;6251230;22;45342;-79
2023/01/12 02:31:47;;;;;;;;;3.00;1.00;;;;;11.15;70.25;101454.13;6248305;22;45249;-79
2023/01/12 02:34:37;;;;;;;;;3.00;1.33;;;;;11.23;70.07;101455.03;6250714;22;47362;-80
2023/01/12 02:37:34;;;;;;;;;3.00;1.00;;;;;11.24;70.38;101457.66;6278728;22;45154;-79
2023/01/12 02:40:35;;;;;;;;;3.00;1.00;;;;;11.24;70.23;101446.25;6250656;22;45380;-78
2023/01/12 02:43:12;;;;;;;;;4.00;2.67;;;;;11.26;70.01;101433.97;6250623;22;45264;-79
2023/01/12 02:48:41;;;;;;;;;5.00;2.33;;;;;11.26;70.08;101424.31;6277862;22;45160;-79
2023/01/12 02:51:42;;;;;;;;;3.67;3.67;;;;;11.27;69.99;101430.44;6278836;22;45232;-79
2023/01/12 02:54:12;;;;;;;;;2.67;2.67;;;;;11.18;69.86;101412.84;6249624;22;45365;-79
2023/01/12 02:56:54;;;;;;;;;2.00;2.00;;;;;11.30;70.09;101427.81;6249684;22;47388;-79
2023/01/12 03:02:28;;;;;;;;;1.00;0.00;;;;;11.20;69.82;101397.94;6277560;22;45479;-78
2023/01/12 03:05:04;;;;;;;;;4.33;2.00;;;;;11.29;69.92;101404.97;6250520;22;45469;-78
2023/01/12 03:07:52;;;;;;;;;7.67;3.33;;;;;11.17;69.76;101378.56;6248484;22;47548;-79
2023/01/12 03:10:49;;;;;;;;;3.00;3.00;;;;;11.33;69.76;101397.97;6244073;22;45310;-78
2023/01/12 03:13:42;;;;;;;;;6.00;2.00;;;;;11.30;69.83;101388.28;6247497;22;45132;-79
2023/01/12 03:16:40;;;;;;;;;3.67;3.67;;;;;11.32;69.74;101386.53;6245010;22;45745;-79
2023/01/12 03:19:18;;;;;;;;;4.00;3.00;;;;;11.35;69.76;101393.56;6234507;22;47016;-78
2023/01/12 03:21:54;;;;;;;;;3.33;2.67;;;;;11.34;69.79;101382.16;6245022;22;45636;-78
2023/01/12 03:24:44;;;;;;;;;2.00;1.00;;;;;11.30;69.63;101364.56;6244850;22;45365;-79
2023/01/12 03:27:38;;;;;;;;;;;;;;;;;;;;;
2023/01/12 03:30:35;;;;;;;;;4.00;2.00;;;;;11.13;69.98;101340.78;6245817;22;75665;-79
2023/01/12 03:33:09;;;;;;;;;3.67;2.00;;;;;11.13;69.82;101346.06;6245341;22;45290;-79
2023/01/12 03:36:10;;;;;;;;;6.00;4.33;;;;;11.21;70.05;101378.59;6245237;22;45240;-78
2023/01/12 03:38:57;;;;;;;;;2.67;2.00;;;;;11.22;70.27;101361.03;6165647;22;45389;-78
2023/01/12 03:41:55;;;;;;;;;3.00;3.00;;;;;11.21;70.05;101354.88;6243542;22;45701;-78
2023/01/12 03:44:37;;;;;;;;;6.00;2.67;;;;;11.20;70.12;101354.84;6250326;22;45273;-79
2023/01/12 03:47:28;;;;;;;;;4.33;1.00;;;;;11.12;70.27;101340.78;6244702;22;45363;-79
2023/01/12 03:50:03;;;;;;;;;5.00;2.33;;;;;11.17;70.42;101346.94;6244866;22;45448;-79
2023/01/12 03:52:36;;;;;;;;;4.00;2.33;;;;;11.10;70.38;101332.88;6244784;22;47110;-78
2023/01/12 03:55:04;;;;;;;;;3.00;2.00;;;;;11.11;70.52;101333.75;6243879;22;45257;-78
2023/01/12 03:57:39;;;;;;;;;2.00;1.00;;;;;11.14;70.77;101353.06;6244956;22;45379;-79
2023/01/12 04:00:20;;;;;;;;;3.00;1.67;;;;;11.03;70.84;101313.50;6244958;22;45510;-78
2023/01/12 04:02:51;;;;;;;;;2.67;2.00;;;;;11.09;70.87;101311.78;6244969;22;47705;-78
2023/01/12 04:08:22;;;;;;;;;4.00;3.00;;;;;11.20;71.04;101313.59;6246540;22;45377;-79
2023/01/12 04:10:56;;;;;;;;;1.50;1.00;;;;;11.14;70.74;101300.38;6244804;22;45403;-79
2023/01/12 04:13:24;;;;;;;;;1.00;1.00;;;;;11.15;70.72;101288.09;6244196;22;46844;-78
2023/01/12 04:15:52;;;;;;;;;4.00;2.25;;;;;11.14;70.89;101297.75;6244871;22;45248;-78
2023/01/12 04:18:18;;;;;;;;;2.00;2.00;;;;;11.25;71.04;101292.50;6244777;22;45191;-78
2023/01/12 04:21:02;;;;;;;;;3.00;2.00;;;;;11.27;70.99;101290.75;6244355;22;45502;-79
2023/01/12 04:24:01;;;;;;;;;;;;;;;;;;;;;
2023/01/12 04:26:35;;;;;;;;;2.00;1.33;;;;;11.20;70.74;101279.34;6238568;22;74460;-79
2023/01/12 04:29:16;;;;;;;;;3.67;1.00;;;;;11.20;70.90;101270.53;6244706;22;45308;-79
2023/01/12 04:32:09;;;;;;;;;5.33;2.67;;;;;11.15;70.71;101245.94;6244392;22;45283;-78
2023/01/12 04:35:16;;;;;;;;;2.67;2.00;;;;;11.36;70.85;101267.06;6247411;22;46203;-80
2023/01/12 04:38:43;;;;;;;;;3.00;1.00;;;;;11.39;70.47;101280.25;6246118;22;45405;-80
2023/01/12 04:41:52;;;;;;;;;3.33;1.67;;;;;11.43;70.33;101286.38;6224581;22;45370;-79
2023/01/12 04:44:34;;;;;;;;;3.00;3.00;;;;;11.37;70.29;101276.72;6245393;22;45301;-80
2023/01/12 04:47:12;;;;;;;;;1.00;1.00;;;;;11.45;69.95;101284.66;6245699;22;47022;-79
2023/01/12 04:49:37;;;;;;;;;4.33;3.00;;;;;11.43;70.15;101282.00;6245717;22;45410;-79
2023/01/12 04:52:13;;;;;;;;;6.00;3.00;;;;;11.53;70.02;101267.06;6246127;22;45299;-80
2023/01/12 04:54:55;;;;;;;;;4.67;3.00;;;;;11.52;69.91;101289.06;6246230;22;45220;-78
2023/01/12 04:57:35;;;;;;;;;7.25;6.00;;;;;11.39;69.84;101237.19;6244881;22;46936;-79
2023/01/12 05:00:09;;;;;;;;;4.33;2.00;;;;;11.43;69.70;101247.72;6246114;22;45202;-79
2023/01/12 05:03:02;;;;;;;;;1.00;1.00;;;;;11.54;69.71;101255.63;6245960;22;45114;-79
2023/01/12 05:11:20;;;;;;;;;2.67;2.33;;;;;11.60;69.62;101245.09;6248526;22;45255;-80
2023/01/12 05:13:57;;;;;;;;;5.33;2.67;;;;;11.68;69.56;101261.81;6246906;22;45253;-81
2023/01/12 05:16:31;;;;;;;;;5.00;3.00;;;;;11.57;69.79;101239.81;6246905;22;45181;-80
2023/01/12 05:19:17;;;;;;;;;2.33;2.00;;;;;11.61;69.56;101262.69;6247199;22;45568;-81
2023/01/12 05:22:08;;;;;;;;;;;;;;;;;;;;;
2023/01/12 05:27:51;;;;;;;;;3.00;2.67;;;;;11.64;69.93;101262.69;6242812;22;45427;-80
2023/01/12 05:30:27;;;;;;;;;3.00;1.00;;;;;11.65;69.96;101258.28;6247422;22;46681;-80
2023/01/12 05:33:23;;;;;;;;;4.33;3.33;;;;;11.54;70.00;101223.13;6247846;22;45146;-80
2023/01/12 05:36:22;;;;;;;;;5.67;2.00;;;;;11.61;69.98;101248.63;6248757;22;45362;-80
2023/01/12 05:38:59;;;;;;;;;1.67;1.33;;;;;11.56;70.08;101253.88;6249777;22;45304;-80
2023/01/12 05:41:25;;;;;;;;;6.00;2.67;;;;;11.65;70.32;101253.91;6246916;22;46688;-80
2023/01/12 05:44:00;;;;;;;;;2.00;1.67;;;;;11.66;69.83;101253.00;6246360;22;45464;-79
2023/01/12 05:46:32;;;;;;;;;1.00;1.00;;;;;11.48;69.99;101229.28;6250523;22;45282;-80
2023/01/12 05:51:55;;;;;;;;;3.00;2.00;;;;;11.66;70.31;101257.41;6251155;22;46103;-80
2023/01/12 05:54:22;;;;;;;;;2.00;2.00;;;;;11.56;69.91;101243.34;6251036;22;45180;-79
2023/01/12 05:56:58;;;;;;;;;;;;;;;;;;;;;
2023/01/12 05:59:27;;;;;;;;;4.00;1.67;;;;;11.55;70.23;101235.44;6251758;22;70925;-79
2023/01/12 06:02:10;;;;;;;;;;;;;;;;;;;;;
2023/01/12 10:07:54;;;;;;;;;1.00;1.00;;;;;12.17;72.59;101268.84;6276141;22;45637;-78
2023/01/12 10:10:36;;;;;;;;;1.00;1.00;;;;;12.33;72.94;101301.38;6246980;22;46824;-78
2023/01/12 10:14:11;;;;;;;;;2.33;1.00;;;;;12.21;72.88;101273.22;6248319;22;45394;-81
2023/01/12 10:16:45;;;;;;;;;1.33;0.67;;;;;12.42;72.59;101292.53;6142714;22;45478;-78
2023/01/12 10:19:24;;;;;;;;;4.00;1.00;;;;;12.40;72.57;101289.88;6275886;22;45677;-79
2023/01/12 10:21:51;;;;;;;;;0.67;0.67;;;;;12.51;72.90;101300.41;6247048;22;48050;-79
2023/01/12 10:24:23;;;;;;;;;1.00;1.00;;;;;12.37;72.80;101266.13;6248233;22;45490;-78
2023/01/12 10:27:01;;;;;;;;;1.00;1.00;;;;;12.44;72.69;101273.16;6248961;22;45245;-78
2023/01/12 11:21:21;;;;;;;;;3.00;2.00;;;;;12.86;72.41;101249.25;6243473;22;45698;-78
2023/01/12 11:27:45;;;;;;;;;1.00;1.00;;;;;12.86;72.30;101231.63;6244900;22;45509;-81
2023/01/12 12:14:49;;;;;;;;;2.00;0.67;;;;;13.60;69.00;101168.50;6227532;22;46968;-79
2023/01/12 12:35:45;;;;;;;;;;;;;;;;;;;;;
2023/01/12 12:45:52;;;;;;;;;1.00;1.00;;;;;13.47;68.06;101124.53;6035587;23;45835;-78
2023/01/12 12:49:21;;;;;;;;;0.00;0.00;;;;;13.31;68.34;101102.69;6035213;23;45359;-78
2023/01/12 12:55:12;;;;;;;;;0.33;0.33;;;;;13.49;68.15;101093.69;6046293;23;45464;-76
2023/01/12 12:58:01;;;;;;;;;2.33;1.00;;;;;13.56;68.15;101108.59;6097855;23;48066;-78
2023/01/12 13:01:18;;;;;;;;;1.00;1.00;;;;;13.56;67.74;101108.59;6241710;22;45284;-78
2023/01/12 13:07:38;;;;;;;;;;;;;;;;;;;;;
2023/01/12 16:34:09;;;;;;;;;1.00;1.00;;;;;12.82;70.64;100946.28;6244833;22;45431;-89
2023/01/12 16:37:13;;;;;;;;;2.00;0.00;;;;;12.76;71.00;100953.38;6248271;22;45450;-88
2023/01/12 16:39:41;;;;;;;;;2.00;1.00;;;;;12.69;70.80;100940.22;6219803;22;45471;-86
2023/01/12 16:42:09;;;;;;;;;2.00;2.00;;;;;12.76;70.75;100957.78;6223487;22;45401;-86
2023/01/12 16:44:37;;;;;;;;;0.00;0.00;;;;;12.67;70.99;100940.25;6248584;22;45262;-85
2023/01/12 16:47:14;;;;;;;;;2.67;1.00;;;;;12.73;71.23;100948.13;6219236;22;47473;-87
2023/01/12 16:49:40;;;;;;;;;1.00;1.00;;;;;12.65;71.05;100943.81;6219174;22;45406;-83
2023/01/12 16:52:38;;;;;;;;;;;;;;;;;;;;;
2023/01/12 16:55:06;;;;;;;;;0.00;0.00;;;;;12.69;71.11;100962.22;6249011;22;72126;-89
2023/01/12 16:57:42;;;;;;;;;3.00;2.00;;;;;12.65;71.38;100946.44;6221457;22;47037;-89
2023/01/12 17:22:30;;;;;;;;;;;;;;;;;;;;;
2023/01/12 17:29:21;;;;;;;;;;;;;;;;;;;;;
2023/01/12 17:32:16;;;;;;;;;1.67;1.00;;;;;12.61;71.52;100924.44;5740813;24;68762;-90
2023/01/12 17:39:21;;;;;;;;;3.00;3.00;;;;;12.65;71.88;100926.19;6096093;23;45830;-89
2023/01/12 17:45:33;;;;;;;;;3.00;2.67;;;;;12.56;72.13;100903.38;6095092;23;45450;-87
2023/01/12 17:48:00;;;;;;;;;2.00;1.00;;;;;12.57;72.34;100915.69;6062751;23;45362;-87
2023/01/12 17:57:32;;;;;;;;;3.00;1.00;;;;;12.56;72.22;100911.31;6236222;22;45222;-89
2023/01/12 18:00:15;;;;;;;;;0.00;0.00;;;;;12.63;72.45;100906.81;6219557;22;45484;-89
2023/01/12 18:05:44;;;;;;;;;;;;;;;;;;;;;
2023/01/12 18:13:33;;;;;;;;;;;;;;;;;;;;;
2023/01/12 18:20:14;;;;;;;;;1.67;0.67;;;;;12.41;73.19;100892.94;6181628;23;45513;-88
2023/01/12 18:29:20;;;;;;;;;0.00;0.00;;;;;12.46;73.45;100912.28;6051848;23;46158;-85
2023/01/12 18:39:35;;;;;;;;;2.00;1.00;;;;;12.50;73.75;100897.25;6196262;22;45834;-87
2023/01/12 19:10:45;;;;;;;;;3.67;3.67;;;;;12.66;72.66;100895.34;6224529;22;45341;-87
2023/01/12 19:29:03;;;;;;;;;1.00;1.00;;;;;12.62;73.01;100876.03;6247044;22;45279;-87
2023/01/12 19:31:30;;;;;;;;;1.00;1.00;;;;;12.62;73.26;100880.44;6218939;22;45290;-91
2023/01/12 19:34:00;;;;;;;;;1.33;0.67;;;;;12.63;72.96;100861.94;6214424;22;45214;-92
2023/01/12 19:36:46;;;;;;;;;0.00;0.00;;;;;12.62;72.91;100870.75;6233243;22;45551;-92
2023/01/12 19:46:31;;;;;;;;;2.33;1.33;;;;;12.74;72.52;100862.69;6158442;23;45361;-91
2023/01/12 19:48:57;;;;;;;;;2.33;1.00;;;;;12.68;72.44;100841.63;6120860;23;45352;-90
2023/01/12 19:55:08;;;;;;;;;;;;;;;;;;;;;
